Capitol Logistics 2301

Operating for ABX



KILN
Wilmington Air Park
Wilmington, Ohio
KSFO
San Francisco International Airport
San Francisco, California

Activity Log

Date Flight Route Aircraft Duration
No Flights Yet

Route Details

Aircraft Information
Group: Boeing Common
Types: B752,B762,B763
Route Data
Demand: H
Distance: 1804nm
Duration: 4h 25m
Recm'd Route: MXQ VHP SPI IRK PWE J130 MCK J44 FQF J80 SAKES J80 OAL INYOE DYAMD5
Origin Wx: KILN 272201Z AUTO 23009KT 10SM FEW025 SCT031 BKN037 17/13 A2976 RMK AO2 T01720133
Dest. Wx: KSFO 272156Z 23009G15KT 10SM FEW010 FEW026 SCT150 BKN200 19/11 A3004 RMK AO2 SLP171 T01940106
Notes:

Financial History
Total Freight: 0lbs
Average Load: 0lbs/flt
Fuel Used: 0lbs
Avg. Fuel Used: 0lbs/flt
Fuel Expense: $0
Avg. Fuel Expense: $0
Avg. Fuel Cost: $0/lbs
Total Gross Income: $0
Pilot Pay: $0
Total Expenses: $0
Total Revenue: $0
Average Revenue: $0